aviador You're here:

LFBM Decoded Metar

MONT-DE-MARSAN in FRANCE
Report Time2018-05-28 07:30:00
UTC Time2018-05-28 07:54:15
Flight Rules ifr IFR
Wind320° at 04 kt
W.Decomp.*RWY 27: 2.6 kt HW 3.1 kt RCW
W.Rank320° ranks 14
Current wind is below 320° avg. (6.3)
Visibility9999 m
Phenomena:N/A
Clouds:Overcast 007 Hf
Expected CloudBase > 400 ft AGL from Temp-Dew spread
Ceiling700 ft
Temp16°C (ISA +1)
Dew Point15°C (94% RH)
QNH1015 hPa
Density Alt535 ft
Elevation207 ft
Report Wrong Elevation
Raw Report
LFBM 280730Z AUTO 32004KT 280V360 9999 OVC007 16/15 Q1015
NOSIG=

Extra information for LFBM:More info

Metar Taf Metar & Taf Last 4 Metars F.Rules Stats Wind Profile Meteogram Temp Stats Airport Information Weather charts Add Link Nearby VenuesMetar ALERT Operation Metar Decoded Social comments